Time;durP1;ratioP1;P1;durP2;ratioP2;P2;SDS_P1;SDS_P2;PMS_P1;PMS_P2;Temp;Humidity;BMP_temperature;BMP_pressure;BME280_temperature;BME280_humidity;BME280_pressure;Samples;Min_cycle;Max_cycle;Signal;HPM_P1;HPM_P2
2022/08/25 00:00:00;;;;;;;6.93;6.23;;;;;;;21.22;80.98;98258.97;4175548;28;20622;-85
2022/08/25 00:02:08;;;;;;;8.20;6.57;;;;;;;21.19;81.34;98256.63;4171618;28;20639;-85
2022/08/25 00:04:13;;;;;;;7.87;6.23;;;;;;;21.17;81.75;98258.59;4170238;28;21224;-85
2022/08/25 00:06:19;;;;;;;7.20;6.40;;;;;;;21.16;81.86;98254.31;4175940;28;20635;-85
2022/08/25 00:08:22;;;;;;;7.60;6.50;;;;;;;21.13;80.92;98259.94;4174713;28;20710;-85
2022/08/25 00:10:26;;;;;;;6.20;5.60;;;;;;;21.13;81.47;98254.66;4175532;28;20627;-85
2022/08/25 00:12:29;;;;;;;8.33;6.77;;;;;;;21.08;81.13;98257.78;4174503;28;20639;-85
2022/08/25 00:14:34;;;;;;;7.70;6.80;;;;;;;21.07;81.26;98257.97;4174021;28;20633;-85
2022/08/25 00:16:38;;;;;;;6.73;6.03;;;;;;;21.06;81.50;98259.75;4176590;28;20618;-85
2022/08/25 00:18:44;;;;;;;9.90;6.97;;;;;;;21.02;82.28;98247.84;4174468;28;20622;-85
2022/08/25 00:20:47;;;;;;;7.57;6.77;;;;;;;21.01;81.13;98246.16;4173874;28;20629;-84
2022/08/25 00:22:52;;;;;;;7.77;6.97;;;;;;;20.97;82.29;98246.66;4178489;28;20640;-85
2022/08/25 00:24:55;;;;;;;7.30;6.30;;;;;;;20.94;81.56;98244.34;4178608;28;20639;-86
2022/08/25 00:27:00;;;;;;;8.50;7.23;;;;;;;20.91;81.70;98245.53;4202616;28;21039;-85
2022/08/25 00:29:04;;;;;;;7.30;6.60;;;;;;;20.88;82.71;98245.00;4175327;28;21026;-85
2022/08/25 00:31:11;;;;;;;7.87;6.30;;;;;;;20.84;81.71;98244.50;4173940;28;20704;-86
2022/08/25 00:33:14;;;;;;;7.90;7.10;;;;;;;20.84;82.14;98244.50;4170028;28;20676;-85
2022/08/25 00:35:17;;;;;;;7.80;7.00;;;;;;;20.80;82.68;98245.00;4171156;28;20656;-85
2022/08/25 00:37:20;;;;;;;7.03;6.33;;;;;;;20.79;82.02;98243.31;4171883;28;20992;-85
2022/08/25 00:39:26;;;;;;;8.27;6.73;;;;;;;20.78;83.63;98244.34;4177999;28;21207;-85
2022/08/25 00:41:29;;;;;;;7.83;7.03;;;;;;;20.77;83.15;98242.66;4177743;28;20637;-85
2022/08/25 00:43:36;;;;;;;9.67;6.90;;;;;;;20.75;83.53;98247.31;4175787;28;21213;-86
2022/08/25 00:45:40;;;;;;;7.67;6.93;;;;;;;20.70;83.10;98244.31;4164092;28;20619;-85
2022/08/25 00:47:43;;;;;;;8.07;6.80;;;;;;;20.69;83.75;98249.78;4173705;28;20698;-85
2022/08/25 00:49:49;;;;;;;7.33;6.60;;;;;;;20.66;82.91;98247.41;4174591;28;20625;-86
2022/08/25 00:51:55;;;;;;;8.03;6.60;;;;;;;20.65;84.03;98243.94;4176808;28;21190;-85
2022/08/25 00:53:59;;;;;;;8.53;7.00;;;;;;;20.64;83.44;98239.66;4177587;28;20629;-85
2022/08/25 00:56:04;;;;;;;8.10;7.00;;;;;;;20.64;83.25;98247.59;4177313;28;20708;-85
2022/08/25 00:58:12;;;;;;;8.73;7.50;;;;;;;20.67;83.40;98244.63;4160890;28;20676;-85
2022/08/25 01:00:19;;;;;;;7.43;6.63;;;;;;;20.68;83.68;98243.66;4176307;28;20638;-85
2022/08/25 01:02:22;;;;;;;8.57;7.10;;;;;;;20.66;83.22;98245.63;4173804;28;21263;-85
2022/08/25 01:04:26;;;;;;;8.57;7.13;;;;;;;20.66;83.77;98250.91;4176770;28;20664;-85
2022/08/25 01:06:30;;;;;;;9.40;7.13;;;;;;;20.63;84.09;98245.94;4173597;28;20630;-84
2022/08/25 01:08:33;;;;;;;8.50;7.40;;;;;;;20.62;83.09;98249.56;4177182;28;20673;-85
2022/08/25 01:10:40;;;;;;;7.00;6.30;;;;;;;20.62;84.41;98252.22;4175479;28;20632;-85
2022/08/25 01:12:44;;;;;;;10.37;7.33;;;;;;;20.61;83.71;98247.94;4175303;28;20623;-85
2022/08/25 01:14:48;;;;;;;10.20;7.20;;;;;;;20.61;84.07;98239.97;4175316;28;20660;-85
2022/08/25 01:16:52;;;;;;;8.17;6.90;;;;;;;20.60;84.52;98246.25;4164555;28;20987;-85
2022/08/25 01:18:59;;;;;;;8.07;6.93;;;;;;;20.61;84.26;98237.31;4181179;28;20630;-85
2022/08/25 01:21:03;;;;;;;7.43;6.63;;;;;;;20.60;84.69;98243.63;4173518;28;20632;-85
2022/08/25 01:23:06;;;;;;;8.00;7.20;;;;;;;20.59;83.76;98236.63;4174471;28;20633;-85
2022/08/25 01:25:25;;;;;;;10.73;7.40;;;;;;;20.59;83.92;98236.63;4176344;28;20670;-85
2022/08/25 01:27:28;;;;;;;8.50;7.10;;;;;;;20.56;84.39;98234.31;4186798;28;20630;-85
2022/08/25 01:29:31;;;;;;;7.60;6.80;;;;;;;20.53;83.03;98229.34;4175277;28;20689;-85
2022/08/25 01:31:35;;;;;;;7.63;6.87;;;;;;;20.53;83.63;98237.28;4181943;28;20634;-85
2022/08/25 01:33:38;;;;;;;9.53;7.90;;;;;;;20.52;85.16;98235.66;4164319;28;20688;-85
2022/08/25 01:35:41;;;;;;;8.07;7.10;;;;;;;20.51;84.10;98226.03;4177709;28;20679;-85
2022/08/25 01:37:46;;;;;;;8.97;7.40;;;;;;;20.51;83.89;98228.69;4180148;28;20632;-85
2022/08/25 01:39:49;;;;;;;9.40;7.30;;;;;;;20.40;83.60;98231.66;4176736;28;20617;-85
2022/08/25 01:42:10;;;;;;;9.67;8.07;;;;;;;20.44;84.98;98226.84;4180084;28;21090;-85
2022/08/25 01:44:13;;;;;;;9.87;8.03;;;;;;;20.42;85.58;98224.34;4180265;28;21177;-85
2022/08/25 01:46:18;;;;;;;7.97;7.17;;;;;;;20.39;83.85;98221.19;4179055;28;20645;-85
2022/08/25 01:48:21;;;;;;;9.27;8.17;;;;;;;20.38;85.21;98228.31;4178326;28;20747;-85
2022/08/25 01:50:25;;;;;;;8.70;7.30;;;;;;;20.38;85.57;98227.47;4176874;28;20678;-85
2022/08/25 01:52:32;;;;;;;8.83;7.93;;;;;;;20.39;85.85;98229.97;4163917;28;20631;-85
2022/08/25 01:54:36;;;;;;;9.97;8.27;;;;;;;20.44;85.00;98222.34;4172643;28;20621;-85
2022/08/25 01:56:39;;;;;;;9.40;8.30;;;;;;;20.46;84.18;98228.34;4179012;28;20685;-85
2022/08/25 01:58:45;;;;;;;11.37;8.47;;;;;;;20.38;84.39;98224.84;4180702;28;20617;-85
2022/08/25 02:00:49;;;;;;;8.90;7.90;;;;;;;20.36;85.48;98222.34;4162589;28;20613;-85
2022/08/25 02:02:53;;;;;;;9.40;8.20;;;;;;;20.38;86.01;98220.34;4174773;28;20650;-85
2022/08/25 02:04:57;;;;;;;10.57;8.70;;;;;;;20.42;85.26;98226.19;4177187;28;20730;-84
2022/08/25 02:07:03;;;;;;;10.60;8.80;;;;;;;20.42;84.91;98221.69;4178481;28;20639;-84
2022/08/25 02:09:16;;;;;;;12.03;8.43;;;;;;;20.43;84.31;98222.50;4177890;28;21016;-85
2022/08/25 02:11:23;;;;;;;8.93;8.00;;;;;;;20.42;85.23;98231.47;4176018;28;20644;-85
2022/08/25 02:13:27;;;;;;;10.10;9.03;;;;;;;20.43;84.82;98228.66;4176012;28;20640;-85
2022/08/25 02:15:33;;;;;;;9.47;8.00;;;;;;;20.44;84.68;98225.00;4177753;28;21163;-85
2022/08/25 02:17:36;;;;;;;9.00;8.10;;;;;;;20.45;84.90;98231.16;4176436;28;21200;-85
2022/08/25 02:19:39;;;;;;;10.60;8.50;;;;;;;20.45;85.40;98226.69;4179396;28;20642;-85
2022/08/25 02:21:43;;;;;;;9.80;8.80;;;;;;;20.50;86.19;98228.84;4173455;28;21063;-85
2022/08/25 02:23:46;;;;;;;9.90;8.40;;;;;;;20.49;84.68;98221.88;4178752;28;20652;-85
2022/08/25 02:25:49;;;;;;;9.73;8.03;;;;;;;20.46;85.01;98222.19;4210796;28;20739;-85
2022/08/25 02:27:54;;;;;;;9.50;7.90;;;;;;;20.41;84.03;98230.63;4179968;28;20693;-85
2022/08/25 02:29:57;;;;;;;10.40;8.07;;;;;;;20.33;85.56;98225.31;4179100;28;20664;-85
2022/08/25 02:32:00;;;;;;;10.00;8.37;;;;;;;20.27;84.64;98221.66;4176949;28;20631;-85
2022/08/25 02:34:04;;;;;;;9.57;8.27;;;;;;;20.19;84.90;98229.56;4178362;28;20686;-85
2022/08/25 02:36:07;;;;;;;11.90;9.57;;;;;;;20.14;84.18;98223.94;4175586;28;20688;-85
2022/08/25 02:38:10;;;;;;;9.30;8.30;;;;;;;20.06;86.28;98222.09;4160508;28;20638;-85
2022/08/25 02:40:13;;;;;;;9.10;8.20;;;;;;;20.05;85.94;98219.59;4163224;28;21205;-86
2022/08/25 02:42:16;;;;;;;9.70;8.67;;;;;;;20.01;86.15;98215.59;4175032;28;20965;-85
2022/08/25 02:44:21;;;;;;;8.90;8.00;;;;;;;20.01;85.15;98218.25;4179641;28;21277;-85
2022/08/25 02:46:24;;;;;;;11.77;9.43;;;;;;;20.03;86.45;98216.28;4176751;28;21065;-85
2022/08/25 02:48:27;;;;;;;10.50;9.40;;;;;;;20.06;87.04;98222.09;4175621;28;20684;-85
2022/08/25 02:50:31;;;;;;;9.10;8.20;;;;;;;20.08;85.98;98214.78;4173910;28;20628;-85
2022/08/25 02:52:35;;;;;;;10.63;9.53;;;;;;;20.08;85.67;98214.78;4178798;28;20624;-85
2022/08/25 02:54:38;;;;;;;11.63;8.67;;;;;;;20.09;86.52;98213.81;4178145;28;20625;-85
2022/08/25 02:56:43;;;;;;;10.40;9.30;;;;;;;20.11;87.18;98211.81;4179488;28;20621;-85
2022/08/25 02:58:47;;;;;;;10.73;8.60;;;;;;;20.12;87.28;98207.38;4179643;28;20625;-85
2022/08/25 03:00:52;;;;;;;11.33;9.40;;;;;;;20.12;86.57;98202.91;4163103;28;20630;-85
2022/08/25 03:02:55;;;;;;;9.93;8.90;;;;;;;20.12;86.06;98204.72;4161432;28;21334;-85
2022/08/25 03:04:58;;;;;;;10.90;9.77;;;;;;;20.12;86.32;98207.38;4180567;28;20980;-85
2022/08/25 03:07:02;;;;;;;9.90;8.57;;;;;;;20.09;86.24;98210.34;4176570;28;21023;-85
2022/08/25 03:09:05;;;;;;;10.20;9.10;;;;;;;20.05;85.92;98201.88;4178893;28;20668;-85
2022/08/25 03:11:09;;;;;;;12.40;9.27;;;;;;;20.01;86.49;98208.50;4162136;28;20698;-85
2022/08/25 03:13:12;;;;;;;10.40;9.30;;;;;;;19.98;85.92;98197.38;4173160;28;21180;-85
2022/08/25 03:15:17;;;;;;;11.67;9.43;;;;;;;19.94;87.14;98206.66;4180336;28;21197;-85
2022/08/25 03:17:21;;;;;;;12.17;8.83;;;;;;;19.92;87.08;98211.25;4174695;28;20695;-86
2022/08/25 03:19:24;;;;;;;10.40;9.30;;;;;;;19.86;87.05;98206.63;4162864;28;21119;-87
2022/08/25 03:21:28;;;;;;;12.77;9.83;;;;;;;19.82;86.50;98205.22;4170563;28;21201;-85
2022/08/25 03:23:31;;;;;;;10.77;9.67;;;;;;;19.80;87.58;98203.72;4171854;28;21276;-85
2022/08/25 03:28:04;;;;;;;10.57;9.00;;;;;;;19.74;87.71;98194.63;4175390;28;20631;-86
2022/08/25 03:30:08;;;;;;;11.50;9.80;;;;;;;19.71;86.40;98202.03;4175815;28;20696;-85
2022/08/25 03:32:11;;;;;;;11.33;9.80;;;;;;;19.68;86.46;98202.34;4177783;28;20617;-85
2022/08/25 03:34:18;;;;;;;14.53;9.63;;;;;;;19.66;87.24;98202.50;4175031;28;20636;-86
2022/08/25 03:36:21;;;;;;;12.30;10.23;;;;;;;19.65;88.05;98200.84;4172330;28;20621;-86
2022/08/25 03:38:24;;;;;;;10.90;9.60;;;;;;;19.63;86.73;98200.16;4161475;28;20629;-85
2022/08/25 03:40:28;;;;;;;11.43;9.80;;;;;;;19.63;87.42;98205.47;4177242;28;20632;-86
2022/08/25 03:42:31;;;;;;;10.80;9.33;;;;;;;19.63;87.56;98202.00;4161430;28;20641;-85
2022/08/25 03:44:34;;;;;;;11.60;9.73;;;;;;;19.61;87.03;98206.63;4172600;28;20637;-86
2022/08/25 03:46:39;;;;;;;13.23;10.53;;;;;;;19.60;87.24;98200.47;4176000;28;20640;-85
2022/08/25 03:48:43;;;;;;;11.47;10.17;;;;;;;19.58;88.38;98210.41;4174961;28;20633;-85
2022/08/25 03:50:49;;;;;;;13.40;10.57;;;;;;;19.60;87.43;98215.53;4177942;28;20649;-86
2022/08/25 03:52:55;;;;;;;13.00;11.13;;;;;;;19.57;88.09;98215.84;4172237;28;20633;-85
2022/08/25 03:54:59;;;;;;;14.30;11.00;;;;;;;19.56;88.58;98212.38;4155449;28;20632;-86
2022/08/25 03:57:02;;;;;;;12.93;11.63;;;;;;;19.57;87.64;98215.84;4172789;28;20608;-85
2022/08/25 03:59:07;;;;;;;12.60;10.57;;;;;;;19.54;88.73;98216.97;4158121;28;20634;-86
2022/08/25 04:01:11;;;;;;;13.87;11.27;;;;;;;19.54;87.60;98219.63;4175547;28;20713;-86
2022/08/25 04:03:14;;;;;;;11.67;10.40;;;;;;;19.50;88.69;98210.38;4173037;28;20851;-85
2022/08/25 04:05:17;;;;;;;13.97;10.90;;;;;;;19.44;89.28;98210.16;4174940;28;20640;-85
2022/08/25 04:07:23;;;;;;;13.10;10.67;;;;;;;19.41;87.72;98202.53;4160976;28;20660;-85
2022/08/25 04:09:26;;;;;;;13.53;10.60;;;;;;;19.37;88.45;98208.31;4178955;28;20627;-85
2022/08/25 04:11:32;;;;;;;12.13;10.93;;;;;;;19.36;89.32;98201.34;4178465;28;20612;-85
2022/08/25 04:13:36;;;;;;;13.80;10.57;;;;;;;19.36;88.07;98201.34;4178002;28;20627;-85
2022/08/25 04:15:42;;;;;;;12.90;11.07;;;;;;;19.37;88.91;98200.38;4172137;28;20628;-86
2022/08/25 04:17:45;;;;;;;14.03;11.20;;;;;;;19.37;88.59;98198.53;4176402;28;20699;-85
2022/08/25 04:19:49;;;;;;;12.50;11.20;;;;;;;19.38;88.85;98193.09;4172037;28;20614;-85
2022/08/25 04:21:55;;;;;;;11.70;9.90;;;;;;;19.37;88.98;98199.34;4177652;28;20644;-86
2022/08/25 04:24:00;;;;;;;12.40;10.87;;;;;;;19.38;89.34;98189.63;4175139;28;20690;-86
2022/08/25 04:26:06;;;;;;;12.37;10.70;;;;;;;19.37;90.07;98186.13;4179091;28;20987;-85
2022/08/25 04:28:09;;;;;;;12.73;11.23;;;;;;;19.38;90.58;98184.34;4170957;28;20637;-86
2022/08/25 04:30:13;;;;;;;12.43;10.97;;;;;;;19.41;89.46;98184.03;4173740;28;20658;-85
2022/08/25 04:32:16;;;;;;;13.53;10.90;;;;;;;19.44;89.10;98175.78;4173494;28;21178;-86
2022/08/25 04:34:21;;;;;;;20.33;11.60;;;;;;;19.41;89.67;98179.56;4174212;28;20636;-86
2022/08/25 04:36:33;;;;;;;13.30;11.60;;;;;;;19.36;88.89;98186.28;4174624;28;20636;-85
2022/08/25 04:38:36;;;;;;;17.40;12.30;;;;;;;19.34;89.95;98200.69;4177549;28;20628;-86
2022/08/25 04:40:41;;;;;;;12.87;11.07;;;;;;;19.34;90.51;98198.84;4172481;28;20636;-85
2022/08/25 04:42:44;;;;;;;12.30;11.00;;;;;;;19.34;90.25;98204.16;4177331;28;20709;-85
2022/08/25 04:44:50;;;;;;;12.53;11.23;;;;;;;19.37;90.80;98203.00;4173006;28;20668;-86
2022/08/25 04:46:53;;;;;;;13.60;11.03;;;;;;;19.39;90.15;98207.16;4180059;28;20616;-85
2022/08/25 04:48:57;;;;;;;12.33;10.70;;;;;;;19.39;89.76;98204.50;4175688;28;20630;-85
2022/08/25 04:51:04;;;;;;;12.40;10.63;;;;;;;19.41;89.77;98198.06;4168876;28;20661;-86
2022/08/25 04:53:07;;;;;;;12.83;11.40;;;;;;;19.44;89.08;98197.75;4177861;28;20620;-85
2022/08/25 04:55:10;;;;;;;13.50;10.97;;;;;;;19.46;90.05;98198.41;4177229;28;20636;-86
2022/08/25 04:57:14;;;;;;;14.13;11.63;;;;;;;19.48;89.48;98201.75;4175972;28;20631;-85
2022/08/25 04:59:18;;;;;;;13.70;11.97;;;;;;;19.52;90.83;98203.09;4178055;28;20617;-85
2022/08/25 05:01:22;;;;;;;11.83;10.50;;;;;;;19.55;90.50;98209.91;4183934;28;20635;-85
2022/08/25 05:03:26;;;;;;;13.00;11.27;;;;;;;19.57;89.41;98211.38;4177409;28;21250;-86
2022/08/25 05:05:29;;;;;;;13.70;12.20;;;;;;;19.58;89.56;98218.34;4182594;28;20686;-86
2022/08/25 05:07:32;;;;;;;13.60;11.50;;;;;;;19.59;89.37;98214.72;4181910;28;20687;-85
2022/08/25 05:09:36;;;;;;;14.20;12.43;;;;;;;19.61;89.28;98217.22;4168298;28;20706;-85
2022/08/25 05:11:39;;;;;;;13.57;11.60;;;;;;;19.61;89.70;98217.22;4180131;28;20670;-85
2022/08/25 05:13:45;;;;;;;12.87;11.33;;;;;;;19.65;89.95;98219.38;4166359;28;20621;-86
2022/08/25 05:15:54;;;;;;;13.50;10.90;;;;;;;19.73;89.10;98213.31;4166312;28;20665;-86
2022/08/25 05:17:57;;;;;;;13.43;11.50;;;;;;;19.85;88.98;98226.91;4180826;28;20635;-86
2022/08/25 05:20:00;;;;;;;12.30;10.77;;;;;;;20.00;87.25;98227.19;4183057;28;20620;-85
2022/08/25 05:22:03;;;;;;;13.27;11.03;;;;;;;20.11;88.04;98226.91;4182386;28;21186;-85
2022/08/25 05:24:07;;;;;;;13.60;10.83;;;;;;;20.23;86.59;98222.97;4182812;28;21223;-85
2022/08/25 05:26:11;;;;;;;12.63;10.87;;;;;;;20.34;86.15;98224.34;4180684;28;20633;-86
2022/08/25 05:28:21;;;;;;;12.70;10.90;;;;;;;20.52;86.29;98225.03;4184462;28;20635;-85
2022/08/25 05:30:25;;;;;;;12.10;10.80;;;;;;;20.72;85.31;98221.13;4178337;28;21506;-86
2022/08/25 05:32:28;;;;;;;11.70;10.50;;;;;;;20.93;84.53;98221.47;4183078;28;20636;-85
2022/08/25 05:34:31;;;;;;;11.90;10.30;;;;;;;21.08;84.70;98222.44;4180358;28;20672;-85
2022/08/25 05:36:34;;;;;;;12.07;10.80;;;;;;;21.23;82.39;98231.41;4183065;28;20674;-86
2022/08/25 05:38:38;;;;;;;14.43;10.60;;;;;;;21.36;82.31;98219.28;4193067;28;20666;-85
2022/08/25 05:40:41;;;;;;;12.00;10.70;;;;;;;21.44;81.94;98219.25;4176830;28;21020;-86
2022/08/25 05:42:44;;;;;;;13.10;11.70;;;;;;;21.54;81.97;98223.44;4166333;28;20664;-86
2022/08/25 05:44:47;;;;;;;11.67;10.47;;;;;;;21.68;81.39;98219.25;4176146;28;20679;-86
2022/08/25 05:46:52;;;;;;;13.03;10.50;;;;;;;21.83;80.90;98219.22;4179869;28;20645;-86
2022/08/25 05:48:56;;;;;;;12.10;10.80;;;;;;;22.03;80.52;98222.31;4180609;28;20657;-86
2022/08/25 05:51:01;;;;;;;11.97;10.10;;;;;;;22.26;81.08;98221.38;4182877;28;20666;-86
2022/08/25 05:53:04;;;;;;;11.97;10.67;;;;;;;22.48;80.05;98224.09;4179449;28;20762;-85
2022/08/25 05:55:08;;;;;;;11.87;10.57;;;;;;;22.71;79.88;98223.09;4167024;28;20643;-86
2022/08/25 05:57:11;;;;;;;12.97;10.63;;;;;;;22.87;78.92;98217.69;4184110;28;20729;-86
2022/08/25 05:59:14;;;;;;;12.50;10.90;;;;;;;23.01;78.04;98219.59;4179896;28;20687;-86
2022/08/25 06:03:48;;;;;;;13.50;10.23;;;;;;;23.34;76.67;98213.00;4177999;28;21168;-86
2022/08/25 06:05:51;;;;;;;11.33;10.13;;;;;;;23.47;76.52;98214.03;4178099;28;20627;-86
2022/08/25 06:07:55;;;;;;;12.73;11.50;;;;;;;23.65;75.78;98203.03;4165994;28;20659;-85
2022/08/25 06:09:58;;;;;;;12.30;10.37;;;;;;;23.80;75.79;98208.22;4180290;28;21241;-86
2022/08/25 06:12:01;;;;;;;11.50;10.30;;;;;;;23.94;75.27;98203.88;4181634;28;20666;-85
2022/08/25 06:14:04;;;;;;;16.07;11.60;;;;;;;24.03;73.94;98203.59;4178605;28;20784;-85
2022/08/25 06:16:07;;;;;;;11.70;10.50;;;;;;;24.05;74.64;98212.22;4177693;28;20682;-85
2022/08/25 06:18:10;;;;;;;11.93;10.73;;;;;;;24.13;74.20;98203.31;4173697;28;20686;-86
2022/08/25 06:20:17;;;;;;;14.33;11.23;;;;;;;24.33;74.17;98206.06;4175639;28;20646;-86
2022/08/25 06:22:25;;;;;;;13.80;11.60;;;;;;;24.48;74.02;98198.84;4177330;28;21152;-85
2022/08/25 06:24:28;;;;;;;11.97;10.70;;;;;;;24.65;73.91;98198.41;4195228;28;20647;-86
2022/08/25 06:26:31;;;;;;;12.40;11.10;;;;;;;24.86;73.86;98192.28;4188655;28;20630;-86
2022/08/25 06:28:34;;;;;;;13.27;11.10;;;;;;;25.02;72.33;98200.03;4177116;28;20638;-86
2022/08/25 06:30:39;;;;;;;12.03;10.83;;;;;;;25.18;72.40;98196.13;4177792;28;20687;-85
2022/08/25 06:32:43;;;;;;;12.80;10.67;;;;;;;25.36;71.68;98201.78;4176236;28;21225;-85
2022/08/25 06:34:46;;;;;;;11.77;10.57;;;;;;;25.51;71.85;98199.03;4173134;28;20979;-86
2022/08/25 06:36:51;;;;;;;12.30;11.00;;;;;;;25.62;71.55;98200.16;4178978;28;21404;-86
2022/08/25 06:38:54;;;;;;;14.63;11.30;;;;;;;25.76;71.07;98201.91;4172250;28;20650;-86
2022/08/25 06:40:57;;;;;;;11.50;10.30;;;;;;;25.92;70.80;98200.75;4171811;28;21222;-86
2022/08/25 06:43:00;;;;;;;12.17;10.90;;;;;;;26.08;70.19;98198.59;4173233;28;20646;-86
2022/08/25 06:45:04;;;;;;;13.93;11.13;;;;;;;26.20;69.63;98199.69;4179476;28;20632;-86
2022/08/25 06:47:08;;;;;;;14.63;10.60;;;;;;;26.23;69.86;98199.28;4178772;28;21240;-86
2022/08/25 06:49:11;;;;;;;12.40;10.50;;;;;;;26.44;70.73;98205.34;4180346;28;20635;-86
2022/08/25 06:51:16;;;;;;;11.87;10.67;;;;;;;26.65;69.88;98203.38;4208860;28;20658;-86
2022/08/25 06:53:21;;;;;;;17.03;10.53;;;;;;;26.84;69.35;98213.31;4163010;28;20629;-86
2022/08/25 06:55:24;;;;;;;11.10;10.00;;;;;;;26.90;67.73;98206.34;4175427;28;20649;-85
2022/08/25 06:57:27;;;;;;;11.70;10.50;;;;;;;27.03;69.23;98198.31;4178766;28;20698;-86
2022/08/25 06:59:31;;;;;;;11.20;10.10;;;;;;;27.20;68.06;98201.25;4175164;28;20980;-86
2022/08/25 07:01:34;;;;;;;11.30;10.30;;;;;;;27.26;68.09;98200.41;4175090;28;20663;-86
2022/08/25 07:03:38;;;;;;;10.50;9.50;;;;;;;27.45;67.85;98204.13;4179143;28;20674;-86
2022/08/25 07:05:41;;;;;;;11.47;9.50;;;;;;;27.62;66.91;98198.97;4158758;28;20626;-87
2022/08/25 07:07:46;;;;;;;10.77;9.60;;;;;;;27.79;66.61;98202.06;4177175;28;21320;-87
2022/08/25 07:09:50;;;;;;;11.80;9.73;;;;;;;27.94;67.23;98199.97;4194181;28;20681;-86
2022/08/25 07:11:54;;;;;;;12.70;10.43;;;;;;;28.04;66.37;98204.69;4171395;28;21057;-86
2022/08/25 07:13:57;;;;;;;10.97;9.90;;;;;;;28.14;66.08;98207.75;4201591;28;20632;-86
2022/08/25 07:16:01;;;;;;;10.60;9.47;;;;;;;28.27;65.86;98204.22;4176335;28;20613;-85
2022/08/25 07:18:05;;;;;;;10.70;9.67;;;;;;;28.41;65.79;98203.94;4179205;28;20621;-86
2022/08/25 07:20:09;;;;;;;9.73;8.83;;;;;;;28.56;64.65;98212.56;4172328;28;20632;-86
2022/08/25 07:22:15;;;;;;;14.90;10.20;;;;;;;28.63;65.32;98206.13;4174166;28;20966;-86
2022/08/25 07:24:19;;;;;;;12.50;9.80;;;;;;;28.69;64.20;98210.66;4174821;28;20802;-86
2022/08/25 07:26:26;;;;;;;10.53;9.53;;;;;;;28.83;64.44;98206.84;4179055;28;20656;-86
2022/08/25 07:28:40;;;;;;;9.90;8.90;;;;;;;28.97;63.92;98203.03;4159315;28;20693;-86
2022/08/25 07:30:50;;;;;;;10.00;9.10;;;;;;;29.07;64.06;98204.22;4176403;28;20714;-86
2022/08/25 07:32:54;;;;;;;11.53;8.87;;;;;;;29.14;63.48;98205.00;4179029;28;20759;-86
2022/08/25 07:35:16;;;;;;;11.57;8.93;;;;;;;29.27;63.83;98196.84;4175431;28;20631;-86
2022/08/25 07:37:22;;;;;;;9.37;8.47;;;;;;;29.43;62.94;98200.88;4172047;28;20723;-85
2022/08/25 07:39:45;;;;;;;9.03;8.13;;;;;;;29.62;62.58;98195.34;4172015;28;20616;-86
2022/08/25 07:41:51;;;;;;;12.13;7.90;;;;;;;29.89;61.76;98194.88;4188454;28;20693;-87
2022/08/25 07:43:55;;;;;;;7.80;7.10;;;;;;;29.97;61.95;98195.41;4191553;28;20669;-86
2022/08/25 07:45:58;;;;;;;8.83;7.93;;;;;;;30.12;61.00;98195.84;4172812;28;20620;-86
2022/08/25 07:48:04;;;;;;;8.97;8.07;;;;;;;30.15;61.70;98198.09;4192776;28;20641;-86
2022/08/25 07:50:10;;;;;;;7.90;7.17;;;;;;;30.40;62.10;98193.50;4175960;28;20644;-86
2022/08/25 07:52:13;;;;;;;7.90;7.10;;;;;;;30.48;60.61;98185.91;4176012;28;20664;-86
2022/08/25 07:54:17;;;;;;;8.93;7.10;;;;;;;30.59;59.21;98195.09;4173086;28;20616;-87
2022/08/25 07:56:20;;;;;;;8.77;7.80;;;;;;;30.68;59.44;98185.66;4179215;28;21235;-87
2022/08/25 07:58:24;;;;;;;9.57;6.90;;;;;;;30.82;59.22;98193.31;4210775;28;20621;-87
2022/08/25 08:00:29;;;;;;;8.43;6.97;;;;;;;30.94;59.21;98191.50;4171707;28;21230;-86
2022/08/25 08:02:32;;;;;;;7.63;6.87;;;;;;;31.08;59.05;98188.41;4153348;28;20695;-87
2022/08/25 08:04:37;;;;;;;7.23;6.43;;;;;;;31.12;57.96;98188.75;4173993;28;20727;-86
2022/08/25 08:06:43;;;;;;;6.87;6.23;;;;;;;31.08;57.59;98184.91;4175868;28;20626;-87
2022/08/25 08:08:48;;;;;;;6.90;6.00;;;;;;;31.06;56.88;98179.72;4176298;28;20687;-86
2022/08/25 08:10:51;;;;;;;6.80;6.20;;;;;;;31.18;57.48;98177.84;4173102;28;21011;-87
2022/08/25 08:13:08;;;;;;;7.97;7.13;;;;;;;31.12;57.48;98178.81;4170896;28;20657;-86
2022/08/25 08:15:14;;;;;;;6.60;5.93;;;;;;;31.24;57.30;98182.31;4175249;28;21210;-87
2022/08/25 08:17:17;;;;;;;7.50;6.60;;;;;;;31.34;57.78;98179.88;4177503;28;20644;-87
2022/08/25 08:19:21;;;;;;;6.53;5.93;;;;;;;31.36;56.48;98183.16;4205380;28;20690;-87
2022/08/25 08:21:27;;;;;;;7.10;6.40;;;;;;;31.32;56.45;98181.16;4154296;28;21031;-87
2022/08/25 08:23:31;;;;;;;6.70;6.10;;;;;;;31.42;56.90;98188.50;4172955;28;20618;-86
2022/08/25 08:25:34;;;;;;;6.77;6.07;;;;;;;31.45;56.92;98185.34;4157636;28;20636;-87
2022/08/25 08:27:38;;;;;;;7.17;5.97;;;;;;;31.48;55.76;98184.88;4154107;28;20687;-87
2022/08/25 08:29:42;;;;;;;6.40;5.80;;;;;;;31.50;55.58;98182.75;4173434;28;20898;-86
2022/08/25 08:31:46;;;;;;;7.30;6.60;;;;;;;31.32;56.53;98179.31;4174468;28;21062;-87
2022/08/25 08:33:51;;;;;;;6.63;6.03;;;;;;;31.11;56.61;98174.44;4176213;28;21105;-87
2022/08/25 08:35:58;;;;;;;7.37;6.17;;;;;;;31.15;57.06;98167.56;4172621;28;20733;-87
2022/08/25 08:38:06;;;;;;;7.20;6.60;;;;;;;31.27;57.01;98162.97;4155729;28;21242;-87
2022/08/25 08:40:19;;;;;;;6.37;5.77;;;;;;;31.32;55.73;98164.97;4174106;28;20672;-87
2022/08/25 08:42:35;;;;;;;6.73;6.03;;;;;;;31.41;55.81;98167.16;4174726;28;20670;-87
2022/08/25 08:44:45;;;;;;;6.53;5.90;;;;;;;31.47;56.83;98155.44;4202194;28;20616;-87
2022/08/25 08:47:00;;;;;;;7.57;6.57;;;;;;;31.58;56.25;98157.31;4161403;28;20629;-87
2022/08/25 08:49:07;;;;;;;7.10;6.40;;;;;;;31.62;55.78;98150.34;4172628;28;21457;-87
2022/08/25 08:51:18;;;;;;;6.90;6.00;;;;;;;31.60;55.54;98152.47;4209111;28;20634;-86
2022/08/25 08:53:36;;;;;;;6.80;6.10;;;;;;;31.44;54.25;98145.09;4189656;28;21587;-87
2022/08/25 08:55:43;;;;;;;6.40;5.90;;;;;;;31.27;55.53;98149.50;4171064;28;21237;-87
2022/08/25 08:57:50;;;;;;;7.10;6.20;;;;;;;31.30;55.25;98153.59;4170419;28;20616;-87
2022/08/25 09:00:00;;;;;;;6.53;5.90;;;;;;;31.38;55.94;98140.59;4177698;28;20693;-86
2022/08/25 09:02:05;;;;;;;7.53;6.83;;;;;;;31.32;56.10;98130.75;4166935;28;20695;-87
2022/08/25 09:04:18;;;;;;;7.17;6.47;;;;;;;31.30;56.23;98132.84;4169665;28;20639;-86
2022/08/25 09:06:24;;;;;;;6.90;6.10;;;;;;;31.31;55.30;98139.88;4167119;28;21196;-87
2022/08/25 09:08:27;;;;;;;7.43;6.27;;;;;;;31.10;55.91;98142.31;4173484;28;20652;-87
2022/08/25 09:10:35;;;;;;;10.03;6.40;;;;;;;31.12;56.13;98130.28;4166625;28;21055;-87
2022/08/25 09:12:43;;;;;;;7.00;6.33;;;;;;;31.20;55.46;98138.00;4169598;28;20686;-87
2022/08/25 09:15:01;;;;;;;7.63;6.93;;;;;;;31.05;56.67;98126.03;4174694;28;20689;-86
2022/08/25 09:17:20;;;;;;;7.33;5.93;;;;;;;30.84;56.11;98120.31;4170880;28;20693;-86
2022/08/25 09:19:58;;;;;;;7.50;6.83;;;;;;;30.84;57.34;98121.16;4167015;28;20648;-86
2022/08/25 09:22:05;;;;;;;7.57;6.73;;;;;;;30.76;56.24;98120.63;4170190;28;21089;-86
2022/08/25 09:24:37;;;;;;;7.70;6.90;;;;;;;30.64;57.22;98117.09;4173390;28;20631;-86
2022/08/25 09:26:45;;;;;;;7.80;7.10;;;;;;;30.55;57.72;98113.06;4169335;28;20636;-86
2022/08/25 09:28:50;;;;;;;7.90;6.50;;;;;;;30.59;57.22;98108.88;4177587;28;20613;-87
2022/08/25 09:30:58;;;;;;;7.03;6.43;;;;;;;30.47;57.64;98108.00;4171434;28;20609;-86
2022/08/25 09:33:03;;;;;;;7.37;6.67;;;;;;;30.21;57.75;98096.75;4206149;28;20716;-87
2022/08/25 09:35:10;;;;;;;6.83;6.20;;;;;;;30.27;58.09;98101.25;4159563;28;21261;-87
2022/08/25 09:37:14;;;;;;;6.00;5.40;;;;;;;30.44;56.93;98098.50;4172651;28;20639;-87
2022/08/25 09:39:18;;;;;;;6.13;5.53;;;;;;;30.42;56.84;98104.34;4173998;28;20646;-86
2022/08/25 09:41:40;;;;;;;7.47;5.80;;;;;;;30.16;56.53;98094.75;4152041;28;20706;-86
2022/08/25 09:43:52;;;;;;;6.57;5.93;;;;;;;30.15;56.92;98101.16;4170485;28;20632;-86
2022/08/25 09:45:59;;;;;;;6.93;6.23;;;;;;;30.12;56.46;98098.13;4176104;28;20634;-86
2022/08/25 09:48:20;;;;;;;6.63;5.60;;;;;;;30.01;56.24;98099.69;4153820;28;21223;-86